Flinterbrise — PHCA — position and weather

sailwx.info

Track history (hours):
 
Tides and Currents Weather Stations Pressure Air Temp Water Temp Dewpoint Dewpoint Depression Visibility Wind Speed Wind Dir Waves Ship Positions

Flinterbrise

Last reported at 2014-Oct-25 06:34 UTC. Time now 2014-Oct-25 12:03 UTC.
Position N 53°60' E 007°32'.

Length 81 m; draft 5.5 m.

Type: Ship. MMSI: 246044000.

Date/timePositionNaut miles runAvg speedWind from/ knotsBaromVisibWave heightAir tempDewpointWater temp
2014-Oct-25 06:34N 53°60' E 007°32'9 8.8
2014-Oct-25 05:33N 54°02' E 007°47'10 9.9
2014-Oct-25 04:33N 54°01' E 008°04'1111.0
2014-Oct-25 03:33N 53°60' E 008°22'1211.9
2014-Oct-25 02:33N 53°55' E 008°41'9 9.4
2014-Oct-25 01:34N 53°51' E 008°55'11 4.5
2014-Oct-24 23:06N 53°55' E 009°12'51 5.8
2014-Oct-24 14:20N 54°30' E 010°16'51 8.7
2014-Oct-24 08:28N 54°29' E 011°44'9 9.8
2014-Oct-24 07:33N 54°27' E 011°59'8 7.9
2014-Oct-24 06:33N 54°31' E 012°11'64 9.1
2014-Oct-23 23:31N 55°01' E 013°48'9 9.3
2014-Oct-23 22:33N 55°04' E 014°03'9 9.3
2014-Oct-23 21:33N 55°11' E 014°14'10 9.6
2014-Oct-23 20:33N 55°18' E 014°25'10 9.6
2014-Oct-23 19:33N 55°25' E 014°36'10 9.6
2014-Oct-23 18:33N 55°31' E 014°50'9 9.4
2014-Oct-23 17:33N 55°36' E 015°04'366 9.8
2014-Oct-22 04:18N 59°39' E 023°35'  
2014-Oct-18 23:33N 59°39' E 024°44'1010.4
2014-Oct-18 22:33N 59°29' E 024°38'2 0.1
2014-Oct-18 04:17N 59°27' E 024°40'394 8.6
2014-Oct-16 06:29N 55°28' E 014°56'10 9.1
2014-Oct-16 05:22N 55°23' E 014°41'8 9.0
2014-Oct-16 04:27N 55°17' E 014°31'8 9.0
2014-Oct-16 03:33N 55°11' E 014°21'81 9.0
2014-Oct-15 18:30N 54°31' E 012°19'9 9.1
2014-Oct-15 17:32N 54°24' E 012°09'9 9.1
2014-Oct-15 16:33N 54°19' E 011°57'10 9.4
2014-Oct-15 15:32N 54°13' E 011°44'18 9.1
2014-Oct-15 13:33N 54°01' E 011°21'8 8.1
2014-Oct-15 12:33N 53°54' E 011°27'0 0.2
2014-Oct-15 11:33N 53°54' E 011°28'0 0.0
2014-Oct-15 10:28N 53°54' E 011°28'0 0.0
2014-Oct-15 09:33N 53°54' E 011°28'0 0.0
2014-Oct-15 08:33N 53°54' E 011°28'0 0.0
2014-Oct-15 07:33N 53°54' E 011°28'  
Track history (hours):
 
Tides and Currents Weather Stations Pressure Air Temp Water Temp Dewpoint Dewpoint Depression Visibility Wind Speed Wind Dir Waves Ship Positions

Flinterbrise

Last reported at 2014-Oct-25 06:34 UTC. Time now 2014-Oct-25 12:03 UTC.
Position N 53°60' E 007°32'.

Length 81 m; draft 5.5 m.

Type: Ship. MMSI: 246044000.

Date/timePositionNaut miles runAvg speedWind from/ knotsBaromVisibWave heightAir tempDewpointWater temp
2014-Oct-25 06:34N 53°60' E 007°32'9 8.8
2014-Oct-25 05:33N 54°02' E 007°47'10 9.9
2014-Oct-25 04:33N 54°01' E 008°04'1111.0
2014-Oct-25 03:33N 53°60' E 008°22'1211.9
2014-Oct-25 02:33N 53°55' E 008°41'9 9.4
2014-Oct-25 01:34N 53°51' E 008°55'11 4.5
2014-Oct-24 23:06N 53°55' E 009°12'51 5.8
2014-Oct-24 14:20N 54°30' E 010°16'51 8.7
2014-Oct-24 08:28N 54°29' E 011°44'9 9.8
2014-Oct-24 07:33N 54°27' E 011°59'8 7.9
2014-Oct-24 06:33N 54°31' E 012°11'64 9.1
2014-Oct-23 23:31N 55°01' E 013°48'9 9.3
2014-Oct-23 22:33N 55°04' E 014°03'9 9.3
2014-Oct-23 21:33N 55°11' E 014°14'10 9.6
2014-Oct-23 20:33N 55°18' E 014°25'10 9.6
2014-Oct-23 19:33N 55°25' E 014°36'10 9.6
2014-Oct-23 18:33N 55°31' E 014°50'9 9.4
2014-Oct-23 17:33N 55°36' E 015°04'366 9.8
2014-Oct-22 04:18N 59°39' E 023°35'  
2014-Oct-18 23:33N 59°39' E 024°44'1010.4
2014-Oct-18 22:33N 59°29' E 024°38'2 0.1
2014-Oct-18 04:17N 59°27' E 024°40'394 8.6
2014-Oct-16 06:29N 55°28' E 014°56'10 9.1
2014-Oct-16 05:22N 55°23' E 014°41'8 9.0
2014-Oct-16 04:27N 55°17' E 014°31'8 9.0
2014-Oct-16 03:33N 55°11' E 014°21'81 9.0
2014-Oct-15 18:30N 54°31' E 012°19'9 9.1
2014-Oct-15 17:32N 54°24' E 012°09'9 9.1
2014-Oct-15 16:33N 54°19' E 011°57'10 9.4
2014-Oct-15 15:32N 54°13' E 011°44'18 9.1
2014-Oct-15 13:33N 54°01' E 011°21'8 8.1
2014-Oct-15 12:33N 53°54' E 011°27'0 0.2
2014-Oct-15 11:33N 53°54' E 011°28'0 0.0
2014-Oct-15 10:28N 53°54' E 011°28'0 0.0
2014-Oct-15 09:33N 53°54' E 011°28'0 0.0
2014-Oct-15 08:33N 53°54' E 011°28'0 0.0
2014-Oct-15 07:33N 53°54' E 011°28'  

Dump ship's entire track history